createdAt,value
2023-05-24T00:00:42.286Z,41.35
2023-05-24T00:03:16.577Z,41.33
2023-05-24T00:05:48.088Z,41.31
2023-05-24T00:08:19.152Z,41.29
2023-05-24T00:10:50.291Z,41.28
2023-05-24T00:13:21.519Z,41.40
2023-05-24T00:15:52.627Z,41.46
2023-05-24T00:18:23.648Z,41.50
2023-05-24T00:20:57.447Z,41.59
2023-05-24T00:23:28.453Z,41.68
2023-05-24T00:25:59.815Z,41.71
2023-05-24T00:28:31.400Z,41.74
2023-05-24T00:31:02.415Z,41.78
2023-05-24T00:33:33.658Z,41.73
2023-05-24T00:36:04.757Z,41.82
2023-05-24T00:38:37.025Z,41.85
2023-05-24T00:41:08.143Z,41.83
2023-05-24T00:43:40.051Z,41.84
2023-05-24T00:46:20.548Z,41.91
2023-05-24T00:48:53.429Z,42.05
2023-05-24T00:51:26.797Z,42.11
2023-05-24T00:53:58.488Z,42.07
2023-05-24T00:56:31.981Z,42.15
2023-05-24T00:59:04.787Z,42.17
2023-05-24T01:01:37.454Z,42.29
2023-05-24T01:04:08.580Z,42.32
2023-05-24T01:06:51.624Z,42.36
2023-05-24T01:09:31.702Z,42.42
2023-05-24T01:12:13.996Z,42.42
2023-05-24T01:14:56.169Z,42.36
2023-05-24T01:17:32.695Z,42.33
2023-05-24T01:20:09.715Z,42.41
2023-05-24T01:23:07.370Z,42.42
2023-05-24T01:25:55.348Z,42.49
2023-05-24T01:28:28.563Z,42.61
2023-05-24T01:31:01.387Z,42.63
2023-05-24T01:33:32.460Z,42.53
2023-05-24T01:36:03.691Z,42.57
2023-05-24T01:38:34.702Z,42.56
2023-05-24T01:41:15.541Z,42.54
2023-05-24T01:43:57.561Z,42.47
2023-05-24T01:46:39.020Z,42.49
2023-05-24T01:49:21.710Z,42.50
2023-05-24T01:51:55.942Z,42.48
2023-05-24T01:54:32.971Z,42.42
2023-05-24T01:57:09.286Z,42.42
2023-05-24T01:59:44.607Z,42.32
2023-05-24T02:02:15.861Z,42.30
2023-05-24T02:04:47.161Z,42.38
2023-05-24T02:07:19.537Z,42.41
2023-05-24T02:09:50.500Z,42.40
2023-05-24T02:12:21.459Z,42.42
2023-05-24T02:14:52.473Z,42.45
2023-05-24T02:17:25.890Z,42.59
2023-05-24T02:19:56.982Z,42.61
2023-05-24T02:22:28.656Z,42.77
2023-05-24T02:24:59.709Z,42.83
2023-05-24T02:27:30.753Z,43.01
2023-05-24T02:30:01.731Z,43.03
2023-05-24T02:32:33.106Z,43.02
2023-05-24T02:35:04.269Z,43.03
2023-05-24T02:37:35.353Z,43.12
2023-05-24T02:40:08.051Z,43.15
2023-05-24T02:42:39.221Z,43.32
2023-05-24T02:45:11.775Z,43.30
2023-05-24T02:47:42.922Z,43.52
2023-05-24T02:50:14.560Z,43.67
2023-05-24T02:52:45.807Z,43.68
2023-05-24T02:55:18.189Z,43.66
2023-05-24T02:57:49.317Z,43.74
2023-05-24T03:00:22.079Z,43.74
2023-05-24T03:02:53.272Z,43.89
2023-05-24T03:05:24.936Z,43.82
2023-05-24T03:07:56.755Z,43.88
2023-05-24T03:10:27.863Z,43.97
2023-05-24T03:13:01.151Z,43.99
2023-05-24T03:17:59.159Z,44.04
2023-05-24T03:20:31.367Z,44.05
2023-05-24T03:23:02.468Z,44.04
2023-05-24T03:25:33.671Z,44.10
2023-05-24T03:28:04.829Z,44.03
2023-05-24T03:30:36.652Z,44.06
2023-05-24T03:33:07.773Z,44.08
2023-05-24T03:35:38.732Z,44.12
2023-05-24T03:38:09.764Z,44.09
2023-05-24T03:40:41.978Z,44.31
2023-05-24T03:43:20.213Z,44.37
2023-05-24T03:45:59.224Z,44.49
2023-05-24T03:48:30.245Z,44.54
2023-05-24T03:51:03.009Z,44.51
2023-05-24T03:53:34.004Z,44.66
2023-05-24T03:56:05.019Z,44.65
2023-05-24T03:58:36.134Z,44.77
2023-05-24T04:01:07.215Z,44.59
2023-05-24T04:03:39.241Z,44.43
2023-05-24T04:06:28.937Z,44.48
2023-05-24T04:13:37.390Z,44.48
2023-05-24T04:16:09.886Z,44.41
2023-05-24T04:18:41.561Z,44.38
2023-05-24T04:21:12.917Z,44.17
2023-05-24T04:23:44.333Z,44.14
2023-05-24T04:26:15.906Z,44.18
2023-05-24T04:28:47.003Z,44.12
2023-05-24T04:31:26.457Z,44.08
2023-05-24T04:33:59.050Z,44.23
2023-05-24T04:36:31.644Z,44.13
2023-05-24T04:39:05.161Z,44.08
2023-05-24T04:41:40.076Z,44.11
2023-05-24T04:44:11.218Z,44.28
2023-05-24T04:46:42.176Z,44.19
2023-05-24T04:49:49.737Z,44.09
2023-05-24T04:52:20.913Z,44.06
2023-05-24T04:54:53.065Z,43.85
2023-05-24T04:57:24.529Z,43.75
2023-05-24T04:59:55.937Z,43.74
2023-05-24T05:02:27.732Z,43.66
2023-05-24T05:04:59.877Z,43.59
2023-05-24T05:07:39.056Z,43.51
2023-05-24T05:10:12.326Z,43.35
2023-05-24T05:12:46.421Z,43.17
2023-05-24T05:15:17.713Z,43.12
2023-05-24T05:22:33.757Z,42.67
2023-05-24T05:25:05.087Z,42.21
2023-05-24T05:27:36.460Z,41.77
2023-05-24T05:50:10.563Z,38.55
2023-05-24T05:52:38.892Z,37.51
2023-05-24T05:55:11.545Z,37.08
2023-05-24T05:57:39.860Z,36.69
2023-05-24T06:00:10.885Z,36.06
2023-05-24T06:02:42.241Z,35.92
2023-05-24T06:05:11.013Z,35.85
2023-05-24T06:07:39.909Z,35.60
2023-05-24T06:10:32.511Z,35.16
2023-05-24T06:13:02.771Z,34.26
2023-05-24T06:15:32.865Z,33.27
2023-05-24T06:18:01.960Z,32.54
2023-05-24T06:20:30.442Z,31.78
2023-05-24T06:23:13.042Z,31.58
2023-05-24T06:25:43.417Z,31.15
2023-05-24T06:28:14.735Z,30.67
2023-05-24T06:30:43.633Z,29.95
2023-05-24T06:33:12.253Z,29.94
2023-05-24T06:35:42.959Z,30.25
2023-05-24T06:38:11.163Z,30.19
2023-05-24T06:40:39.551Z,30.30
2023-05-24T06:43:07.761Z,31.10
2023-05-24T06:45:36.782Z,31.44
2023-05-24T06:48:06.638Z,31.52
2023-05-24T06:50:39.657Z,31.87
2023-05-24T06:53:09.837Z,32.40
2023-05-24T06:55:38.170Z,32.57
2023-05-24T06:58:07.202Z,33.05
2023-05-24T07:00:35.523Z,33.75
2023-05-24T07:03:04.462Z,33.22
2023-05-24T07:05:33.522Z,33.08
2023-05-24T07:08:02.023Z,33.20
2023-05-24T07:10:30.438Z,32.87
2023-05-24T07:12:59.235Z,33.13
2023-05-24T07:15:27.990Z,32.80
2023-05-24T07:17:56.499Z,33.22
2023-05-24T07:20:24.949Z,32.89
2023-05-24T07:22:53.392Z,32.35
2023-05-24T07:25:22.567Z,33.18
2023-05-24T07:27:51.089Z,33.86
2023-05-24T07:30:31.093Z,33.65
2023-05-24T07:33:21.502Z,32.56
2023-05-24T07:48:11.771Z,31.10
2023-05-24T07:50:40.293Z,31.06
2023-05-24T07:53:09.067Z,31.04
2023-05-24T07:55:37.480Z,30.90
2023-05-24T07:58:05.951Z,31.23
2023-05-24T08:00:45.936Z,31.78
2023-05-24T08:03:15.075Z,31.91
2023-05-24T08:05:43.744Z,32.00
2023-05-24T08:08:12.381Z,32.10
2023-05-24T08:10:40.658Z,31.96
2023-05-24T08:13:08.987Z,32.17
2023-05-24T08:15:37.250Z,32.13
2023-05-24T08:18:05.547Z,31.60
2023-05-24T08:20:36.064Z,31.44
2023-05-24T08:23:04.551Z,31.70
2023-05-24T08:25:33.146Z,31.58
2023-05-24T08:28:01.868Z,30.83
2023-05-24T08:30:30.201Z,30.93
2023-05-24T08:32:58.540Z,31.00
2023-05-24T08:35:26.866Z,31.15
2023-05-24T08:37:55.252Z,31.08
2023-05-24T08:40:24.495Z,30.94
2023-05-24T08:42:53.654Z,30.71
2023-05-24T08:45:23.161Z,30.41
2023-05-24T08:47:52.379Z,30.46
2023-05-24T08:50:21.254Z,30.24
2023-05-24T08:52:51.186Z,29.96
2023-05-24T08:55:20.072Z,29.95
2023-05-24T08:57:48.689Z,30.16
2023-05-24T09:00:19.171Z,30.55
2023-05-24T09:02:47.804Z,30.72
2023-05-24T09:05:16.873Z,30.60
2023-05-24T09:07:46.284Z,30.33
2023-05-24T09:10:15.275Z,30.33
2023-05-24T09:12:48.310Z,30.39
2023-05-24T09:15:16.568Z,30.66
2023-05-24T09:17:45.251Z,30.80
2023-05-24T09:20:14.048Z,30.58
2023-05-24T09:22:43.320Z,31.19
2023-05-24T09:25:14.880Z,31.37
2023-05-24T09:27:48.999Z,31.59
2023-05-24T09:30:17.656Z,31.82
2023-05-24T09:32:57.052Z,32.25
2023-05-24T09:35:26.588Z,32.38
2023-05-24T09:37:57.342Z,32.31
2023-05-24T09:40:26.581Z,32.61
2023-05-24T09:43:05.464Z,32.86
2023-05-24T09:45:38.642Z,33.01
2023-05-24T09:48:12.262Z,32.70
2023-05-24T09:50:41.391Z,32.75
2023-05-24T09:53:09.941Z,32.58
2023-05-24T09:55:38.720Z,32.83
2023-05-24T09:58:08.625Z,32.99
2023-05-24T10:00:40.794Z,32.78
2023-05-24T10:03:11.384Z,33.00
2023-05-24T10:05:44.286Z,32.81
2023-05-24T10:08:13.703Z,32.77
2023-05-24T10:10:43.805Z,33.12
2023-05-24T10:13:17.264Z,33.42
2023-05-24T10:15:47.879Z,33.74
2023-05-24T10:18:16.212Z,34.19
2023-05-24T10:20:45.028Z,34.38
2023-05-24T10:23:20.240Z,34.68
2023-05-24T10:25:53.152Z,34.74
2023-05-24T10:28:23.930Z,35.11
2023-05-24T10:31:02.159Z,35.00
2023-05-24T10:33:34.644Z,34.73
2023-05-24T10:36:03.888Z,34.72
2023-05-24T10:38:32.800Z,34.95
2023-05-24T10:41:02.024Z,34.95
2023-05-24T10:43:30.633Z,35.09
2023-05-24T10:45:58.962Z,34.97
2023-05-24T10:48:37.039Z,34.96
2023-05-24T10:51:39.052Z,34.70
2023-05-24T10:54:18.610Z,34.59
2023-05-24T10:56:48.419Z,34.51
2023-05-24T10:59:38.288Z,34.42
2023-05-24T11:02:12.863Z,34.53
2023-05-24T11:04:42.832Z,34.11
2023-05-24T11:07:14.080Z,34.51
2023-05-24T11:09:45.814Z,34.43
2023-05-24T11:12:17.197Z,34.17
2023-05-24T11:14:49.503Z,34.16
2023-05-24T11:17:18.572Z,34.00
2023-05-24T11:19:50.137Z,34.08
2023-05-24T11:22:20.127Z,34.14
2023-05-24T11:24:48.612Z,34.28
2023-05-24T11:27:16.819Z,34.29
2023-05-24T11:29:46.406Z,34.47
2023-05-24T11:32:17.492Z,34.39
2023-05-24T11:34:47.384Z,34.41
2023-05-24T11:37:17.947Z,33.95
2023-05-24T11:39:53.107Z,33.85
2023-05-24T11:42:22.900Z,33.74
2023-05-24T11:44:51.575Z,33.89
2023-05-24T11:47:21.852Z,33.88
2023-05-24T11:49:52.094Z,34.20
2023-05-24T11:52:20.848Z,34.04
2023-05-24T11:54:49.903Z,33.96
2023-05-24T11:57:23.561Z,34.05
2023-05-24T11:59:52.749Z,34.30
2023-05-24T12:02:21.605Z,34.54
2023-05-24T12:04:49.868Z,34.80
2023-05-24T12:07:18.261Z,35.01
2023-05-24T12:09:46.896Z,35.12
2023-05-24T12:12:15.830Z,35.15
2023-05-24T12:14:44.150Z,35.26
2023-05-24T12:17:16.845Z,35.29
2023-05-24T12:19:48.769Z,35.49
2023-05-24T12:22:17.277Z,35.22
2023-05-24T12:24:48.959Z,35.28
2023-05-24T12:27:17.145Z,35.28
2023-05-24T12:29:46.033Z,35.22
2023-05-24T12:32:15.428Z,35.37
2023-05-24T12:34:44.821Z,35.45
2023-05-24T12:37:14.660Z,35.37
2023-05-24T12:39:44.214Z,35.56
2023-05-24T12:42:13.276Z,35.58
2023-05-24T12:44:41.807Z,35.42
2023-05-24T12:47:10.235Z,35.25
2023-05-24T12:49:38.612Z,35.41
2023-05-24T12:52:07.196Z,35.52
2023-05-24T12:54:35.544Z,35.50
2023-05-24T12:57:04.518Z,35.23
2023-05-24T12:59:33.681Z,35.15
2023-05-24T13:02:02.460Z,35.18
2023-05-24T13:04:33.018Z,35.16
2023-05-24T13:07:03.487Z,35.03
2023-05-24T13:09:32.882Z,34.91
2023-05-24T13:12:01.348Z,34.73
2023-05-24T13:14:29.821Z,34.74
2023-05-24T13:16:58.402Z,34.78
2023-05-24T13:19:26.999Z,34.56
2023-05-24T13:21:55.206Z,34.59
2023-05-24T13:24:23.591Z,34.55
2023-05-24T13:26:54.630Z,34.71
2023-05-24T13:31:55.686Z,34.50
2023-05-24T13:34:25.203Z,34.57
2023-05-24T13:36:54.113Z,34.80
2023-05-24T13:39:23.297Z,34.87
2023-05-24T13:41:51.699Z,34.78
2023-05-24T13:44:20.118Z,34.41
2023-05-24T13:46:48.449Z,34.20
2023-05-24T13:49:16.761Z,34.14
2023-05-24T13:52:43.635Z,34.27
2023-05-24T13:55:13.005Z,34.27
2023-05-24T13:57:51.156Z,34.09
2023-05-24T14:00:24.840Z,33.73
2023-05-24T14:04:00.667Z,33.99
2023-05-24T14:06:29.089Z,35.19
2023-05-24T14:08:57.444Z,36.40
2023-05-24T14:11:25.959Z,37.69
2023-05-24T14:16:25.823Z,39.78
2023-05-24T14:18:54.126Z,40.79
2023-05-24T14:24:09.509Z,42.35
2023-05-24T14:26:38.617Z,43.22
2023-05-24T14:29:07.172Z,43.72
2023-05-24T14:31:41.647Z,44.16
2023-05-24T14:34:10.802Z,45.01
2023-05-24T14:36:41.040Z,45.62
2023-05-24T14:39:09.599Z,46.06
2023-05-24T14:41:38.040Z,46.39
2023-05-24T14:44:06.337Z,46.83
2023-05-24T14:46:34.697Z,47.04
2023-05-24T14:49:03.276Z,47.00
2023-05-24T14:51:32.015Z,46.96
2023-05-24T14:54:00.279Z,46.39
2023-05-24T14:56:28.587Z,46.75
2023-05-24T14:58:58.037Z,47.50
2023-05-24T15:01:26.461Z,48.09
2023-05-24T15:07:14.939Z,48.79
2023-05-24T15:09:42.206Z,49.28
2023-05-24T15:12:10.675Z,49.72
2023-05-24T15:14:38.884Z,50.31
2023-05-24T15:17:07.355Z,50.98
2023-05-24T15:19:35.641Z,50.97
2023-05-24T15:22:04.381Z,50.72
2023-05-24T15:24:32.689Z,50.66
2023-05-24T15:27:01.692Z,50.65
2023-05-24T15:29:30.083Z,50.77
2023-05-24T15:32:00.173Z,51.05
2023-05-24T15:34:28.418Z,51.13
2023-05-24T15:36:56.938Z,51.31
2023-05-24T15:39:25.297Z,51.59
2023-05-24T15:41:54.068Z,51.53
2023-05-24T15:44:22.397Z,51.23
2023-05-24T15:46:53.674Z,50.74
2023-05-24T15:49:25.098Z,50.44
2023-05-24T15:54:24.985Z,50.74
2023-05-24T15:56:53.363Z,50.75
2023-05-24T16:03:00.758Z,50.95
2023-05-24T16:05:29.235Z,51.20
2023-05-24T16:18:33.896Z,51.56
2023-05-24T16:21:02.350Z,51.86
2023-05-24T16:23:30.558Z,51.99
2023-05-24T16:25:59.005Z,51.89
2023-05-24T16:28:27.653Z,52.00
2023-05-24T16:30:56.827Z,52.05
2023-05-24T16:38:02.453Z,52.02
2023-05-24T16:40:55.072Z,52.00
2023-05-24T16:43:38.197Z,52.06
2023-05-24T16:53:14.904Z,51.86
2023-05-24T16:56:08.477Z,51.62
2023-05-24T16:58:45.186Z,51.38
2023-05-24T17:14:57.555Z,51.24
2023-05-24T17:17:36.453Z,51.14
2023-05-24T17:20:09.335Z,51.30
2023-05-24T17:22:58.815Z,51.41
2023-05-24T17:30:15.220Z,51.75
2023-05-24T17:32:51.206Z,52.02
2023-05-24T17:35:22.325Z,52.28
2023-05-24T17:37:53.381Z,52.39
2023-05-24T17:40:24.409Z,52.36
2023-05-24T17:42:55.334Z,52.59
2023-05-24T17:45:26.413Z,52.54
2023-05-24T17:47:57.374Z,52.73
2023-05-24T17:50:28.362Z,52.68
2023-05-24T17:52:59.864Z,52.89
2023-05-24T17:55:31.165Z,52.85
2023-05-24T17:58:02.222Z,53.02
2023-05-24T18:00:33.216Z,53.24
2023-05-24T18:03:04.547Z,53.07
2023-05-24T18:05:36.008Z,53.27
2023-05-24T18:08:06.961Z,53.34
2023-05-24T18:10:37.880Z,53.40
2023-05-24T18:13:10.072Z,53.50
2023-05-24T18:15:44.530Z,53.50
2023-05-24T18:18:16.302Z,53.49
2023-05-24T18:20:47.350Z,53.53
2023-05-24T18:23:18.335Z,53.66
2023-05-24T18:25:49.414Z,53.89
2023-05-24T18:28:20.477Z,53.98
2023-05-24T18:30:53.869Z,54.14
2023-05-24T18:33:25.252Z,54.07
2023-05-24T18:35:56.446Z,54.20
2023-05-24T18:38:27.563Z,54.40
2023-05-24T18:41:00.332Z,54.24
2023-05-24T18:47:22.632Z,54.26
2023-05-24T19:00:32.955Z,54.25
2023-05-24T19:03:03.984Z,54.13
2023-05-24T19:05:35.002Z,54.31
2023-05-24T19:08:06.088Z,54.45
2023-05-24T19:10:37.272Z,54.55
2023-05-24T19:13:08.798Z,54.73
2023-05-24T19:15:39.824Z,54.92
2023-05-24T19:18:12.878Z,55.10
2023-05-24T19:20:48.503Z,55.22
2023-05-24T19:31:49.143Z,55.94
2023-05-24T19:38:28.843Z,56.00
2023-05-24T19:41:00.039Z,56.12
2023-05-24T19:43:31.237Z,56.20
2023-05-24T19:46:11.152Z,56.39
2023-05-24T19:48:43.596Z,56.36
2023-05-24T19:51:15.854Z,56.47
2023-05-24T19:53:47.514Z,56.50
2023-05-24T19:56:23.639Z,56.70
2023-05-24T19:58:54.644Z,56.74
2023-05-24T20:01:25.867Z,56.85
2023-05-24T20:03:59.857Z,56.75
2023-05-24T20:06:31.583Z,56.87
2023-05-24T20:09:03.921Z,56.99
2023-05-24T20:11:35.177Z,56.93
2023-05-24T20:14:06.607Z,56.83
2023-05-24T20:16:38.192Z,56.86
2023-05-24T20:19:10.634Z,57.00
2023-05-24T20:21:42.088Z,57.05
2023-05-24T20:24:13.693Z,57.05
2023-05-24T20:26:45.385Z,57.17
2023-05-24T20:29:16.599Z,57.20
2023-05-24T20:31:48.146Z,57.27
2023-05-24T20:34:21.570Z,57.33
2023-05-24T20:36:55.580Z,57.46
2023-05-24T20:39:29.399Z,57.45
2023-05-24T20:42:02.700Z,57.52
2023-05-24T20:44:34.059Z,57.55
2023-05-24T20:47:08.102Z,57.48
2023-05-24T20:49:39.369Z,57.64
2023-05-24T20:52:20.752Z,57.73
2023-05-24T20:54:52.253Z,57.82
2023-05-24T20:57:23.938Z,57.90
2023-05-24T21:02:50.903Z,58.07
2023-05-24T21:05:22.065Z,58.18
2023-05-24T21:07:52.996Z,58.28
2023-05-24T21:10:28.947Z,58.37
2023-05-24T21:16:16.113Z,58.53
2023-05-24T21:18:47.408Z,58.65
2023-05-24T21:21:40.672Z,58.74
2023-05-24T21:24:12.002Z,58.91
2023-05-24T21:26:43.162Z,58.98
2023-05-24T21:29:15.240Z,59.10
2023-05-24T21:31:46.472Z,59.03
2023-05-24T21:34:17.703Z,59.10
2023-05-24T21:37:08.766Z,59.21
2023-05-24T21:40:06.436Z,59.22
2023-05-24T21:42:38.165Z,59.37
2023-05-24T21:45:11.130Z,59.41
2023-05-24T21:47:43.086Z,59.59
2023-05-24T21:50:14.417Z,59.71
2023-05-24T21:52:45.953Z,59.79
2023-05-24T21:55:17.255Z,59.85
2023-05-24T22:00:39.323Z,60.14
2023-05-24T22:03:10.727Z,60.30
2023-05-24T22:05:41.756Z,60.19
2023-05-24T22:08:13.068Z,60.28
2023-05-24T22:10:44.290Z,60.45
2023-05-24T22:13:15.977Z,60.43
2023-05-24T22:15:47.119Z,60.49
2023-05-24T22:18:18.491Z,60.58
2023-05-24T22:20:51.888Z,60.66
2023-05-24T22:23:22.994Z,60.73
2023-05-24T22:25:53.976Z,60.81
2023-05-24T22:28:25.068Z,60.79
2023-05-24T22:30:57.936Z,60.88
2023-05-24T22:33:29.085Z,60.98
2023-05-24T22:36:02.201Z,61.09
2023-05-24T22:38:33.303Z,61.10
2023-05-24T22:41:04.268Z,61.31
2023-05-24T22:43:35.245Z,61.27
2023-05-24T22:46:07.794Z,61.49
2023-05-24T22:48:41.188Z,61.50
2023-05-24T22:51:13.263Z,61.52
2023-05-24T22:53:44.404Z,61.80
2023-05-24T22:56:15.389Z,61.88
2023-05-24T22:58:46.350Z,61.87
2023-05-24T23:01:17.704Z,61.99
2023-05-24T23:03:48.724Z,61.99
2023-05-24T23:06:21.241Z,62.14
2023-05-24T23:08:52.325Z,62.10
2023-05-24T23:11:24.476Z,62.28
2023-05-24T23:13:59.696Z,62.35
2023-05-24T23:16:32.020Z,62.38
2023-05-24T23:19:04.952Z,62.48
2023-05-24T23:21:37.169Z,62.50
2023-05-24T23:24:14.354Z,62.65
2023-05-24T23:26:47.690Z,62.81
2023-05-24T23:29:18.671Z,62.79
2023-05-24T23:31:51.706Z,62.99
2023-05-24T23:34:22.716Z,62.98
2023-05-24T23:36:55.949Z,63.07
2023-05-24T23:39:28.840Z,63.10
2023-05-24T23:42:02.630Z,63.28
2023-05-24T23:44:33.642Z,63.33
2023-05-24T23:47:04.804Z,63.39
2023-05-24T23:49:36.564Z,63.38
2023-05-24T23:52:08.343Z,63.53
2023-05-24T23:54:39.804Z,63.60
2023-05-24T23:57:10.840Z,63.66
2023-05-24T23:59:41.938Z,63.72
